Roanoke, VA (24012)

3:25 PM EDT on September 01, 2015 (GMT -0400)
Preston Park | | Change Station
CLOSE
Current Station
Personal Weather Station
Location: Roanoke, VA
Elevation: 1066 ft
Nearby Weather Stations

Elev 1066 ft 37.32 °N, 79.94 °W | Updated 9 minutes ago

Partly Cloudy
Partly Cloudy
91.2 °F
Feels Like 94 °F
N
2.7
Wind Variable Wind from ESE

Today
High -- | Low -- °F
--% Chance of Precip.
Yesterday
High -- | Low -- °F
Precip. -- in
6:50 AM 7:48 PM
Waning Gibbous, 87% visible
Pressure 30.08 in
Visibility 10.0 miles
Clouds Scattered Clouds 5500 ft
Heat Index 94 °F
Dew Point 66 °F
Humidity 43%
Rainfall 0.00 in
Snow Depth Not available.
UV 7 out of 12
Pollen 9.40 out of 12
Air Quality Not available.
Flu Activity Not available.
METAR KROA 011854Z 27003KT 10SM SCT055 33/16 A3012 RMK AO2 SLP184 T03280161
Pressure 30.08 in
Visibility 10.0 miles
Clouds Scattered Clouds 5500 ft
Heat Index 94 °F
Dew Point 66 °F
Humidity 43%
Rainfall 0.00 in
Snow Depth Not available.
UV 7 out of 12
Pollen 9.40 out of 12
Air Quality Not available.
Flu Activity Not available.
METAR KROA 011854Z 27003KT 10SM SCT055 33/16 A3012 RMK AO2 SLP184 T03280161

10-Day Weather Forecast

×

Almanac

Astronomy

Sep. 01, 2015 Rise Set
Actual Time
Civil Twilight
Nautical Twilight
Astronomical Twilight
Moon
Length of Visible Light
Length of Day
Tomorrow will be .
, % of the Moon is Illuminated

Today's Extremes

State Highs State Lows

Community

WunderPhotos

Upload Photos

1,851,596 photos uploaded!

WunderBlogs® & News

Nearby

Air Quality

  Air Quality AQ Index Pollutant
Not available.

Snow Depth

Station Depth Elevation

Earthquake Activity

City Distance Mag. Time & Date
Minimum magnitude displayed is 2.5.

Coastal Water Temperatures

Place Temperature

Stations

Nearby Weather Stations

Station Location Temp. Windchill Dew Point Humidity Wind Precip. Elev Updated Type